Time;durP1;ratioP1;P1;durP2;ratioP2;P2;SDS_P1;SDS_P2;PMS_P1;PMS_P2;Temp;Humidity;BMP_temperature;BMP_pressure;BME280_temperature;BME280_humidity;BME280_pressure;Samples;Min_cycle;Max_cycle;Signal;HPM_P1;HPM_P2
2022/07/25 00:00:07;;;;;;;10.95;6.55;;;;;;;28.82;84.38;99584.59;4982460;28;20042;-73
2022/07/25 00:02:33;;;;;;;12.68;7.22;;;;;;;28.78;84.28;99583.47;4981791;28;20344;-74
2022/07/25 00:04:59;;;;;;;7.20;6.50;;;;;;;28.77;84.48;99581.84;4981281;28;20042;-74
2022/07/25 00:07:25;;;;;;;9.00;6.80;;;;;;;28.75;84.69;99581.28;4983096;28;20037;-74
2022/07/25 00:09:51;;;;;;;11.35;7.05;;;;;;;28.72;84.90;99584.50;4981465;28;20035;-73
2022/07/25 00:12:17;;;;;;;8.07;6.65;;;;;;;28.70;85.25;99580.38;4984213;28;20030;-73
2022/07/25 00:14:43;;;;;;;8.52;6.60;;;;;;;28.68;85.57;99574.41;4980318;28;20055;-73
2022/07/25 00:17:09;;;;;;;7.72;7.00;;;;;;;28.66;85.82;99573.84;4981807;28;20125;-74
2022/07/25 00:19:34;;;;;;;14.95;7.00;;;;;;;28.62;85.66;99581.69;4981223;28;20081;-73
2022/07/25 00:22:00;;;;;;;7.13;6.50;;;;;;;28.59;86.16;99579.50;4981291;28;20034;-73
2022/07/25 00:24:26;;;;;;;7.30;6.68;;;;;;;28.54;86.64;99579.47;4982760;28;20085;-73
2022/07/25 00:26:51;;;;;;;6.78;6.07;;;;;;;28.49;86.87;99574.81;4979663;28;20098;-73
2022/07/25 00:29:17;;;;;;;8.95;6.97;;;;;;;28.48;87.09;99583.22;4982316;28;20035;-75
2022/07/25 00:31:42;;;;;;;9.13;7.10;;;;;;;28.47;87.15;99576.97;4980351;28;20078;-74
2022/07/25 00:34:08;;;;;;;7.75;7.00;;;;;;;28.47;87.51;99573.41;4982675;28;20039;-74
2022/07/25 00:36:34;;;;;;;8.77;6.93;;;;;;;28.44;87.71;99577.50;4980809;28;20037;-74
2022/07/25 00:38:59;;;;;;;7.13;6.43;;;;;;;28.43;87.82;99575.03;4982315;28;20027;-74
2022/07/25 00:41:25;;;;;;;11.43;6.68;;;;;;;28.37;88.02;99576.06;4982564;28;20039;-73
2022/07/25 00:43:51;;;;;;;11.18;7.30;;;;;;;28.37;87.96;99578.78;4979778;28;20039;-74
2022/07/25 00:46:17;;;;;;;8.55;7.25;;;;;;;28.36;88.04;99569.81;4983495;28;20109;-74
2022/07/25 00:48:43;;;;;;;7.90;6.50;;;;;;;28.39;88.75;99573.91;4980145;28;20394;-75
2022/07/25 00:51:09;;;;;;;7.75;6.93;;;;;;;28.34;88.43;99580.09;4982709;28;20364;-75
2022/07/25 00:53:36;;;;;;;7.53;6.70;;;;;;;28.28;88.64;99572.97;4980683;28;20046;-72
2022/07/25 00:56:03;;;;;;;7.40;6.68;;;;;;;28.26;88.67;99577.88;4981283;28;20042;-74
2022/07/25 00:58:29;;;;;;;8.05;7.25;;;;;;;28.27;88.79;99575.97;4981730;28;20117;-75
2022/07/25 01:00:55;;;;;;;7.32;6.43;;;;;;;28.25;88.96;99569.97;4980465;28;20122;-73
2022/07/25 01:03:20;;;;;;;9.25;7.00;;;;;;;28.24;88.49;99565.63;4983138;28;20034;-74
2022/07/25 01:05:46;;;;;;;8.40;6.35;;;;;;;28.24;88.69;99571.03;4979946;28;20031;-74
2022/07/25 01:08:13;;;;;;;11.13;7.20;;;;;;;28.19;89.53;99562.88;4985528;28;20112;-73
2022/07/25 01:10:39;;;;;;;7.93;6.97;;;;;;;28.10;89.69;99566.00;4978714;28;20471;-74
2022/07/25 01:13:04;;;;;;;6.85;6.20;;;;;;;28.04;90.01;99561.59;4981928;28;20035;-73
2022/07/25 01:15:30;;;;;;;9.38;7.10;;;;;;;28.00;90.48;99565.91;4983353;28;20105;-74
2022/07/25 01:17:56;;;;;;;9.98;7.80;;;;;;;27.83;91.61;99565.19;4984396;28;20067;-75
2022/07/25 01:20:24;;;;;;;7.90;7.20;;;;;;;27.72;92.10;99563.44;4986718;28;20031;-74
2022/07/25 01:22:50;;;;;;;11.45;8.05;;;;;;;27.61;93.08;99561.69;4983028;28;20436;-75
2022/07/25 01:25:16;;;;;;;8.52;7.50;;;;;;;27.54;93.24;99563.78;4979214;28;20081;-75
2022/07/25 01:27:42;;;;;;;8.63;7.00;;;;;;;27.49;94.17;99563.69;4986025;28;20678;-75
2022/07/25 01:30:10;;;;;;;8.27;6.88;;;;;;;27.40;94.52;99559.75;4984442;28;20472;-74
2022/07/25 01:32:36;;;;;;;10.45;7.80;;;;;;;27.39;94.27;99564.34;4985560;28;20031;-74
2022/07/25 01:35:05;;;;;;;8.88;8.00;;;;;;;27.37;94.53;99565.69;4985236;28;20041;-74
2022/07/25 01:37:31;;;;;;;10.00;7.30;;;;;;;27.36;94.47;99566.75;4984560;28;20027;-74
2022/07/25 01:39:57;;;;;;;8.73;7.57;;;;;;;27.33;95.35;99570.00;4986330;28;20039;-74
2022/07/25 01:42:22;;;;;;;9.35;7.95;;;;;;;27.27;95.30;99569.88;4985824;28;20032;-75
2022/07/25 01:44:48;;;;;;;8.23;7.45;;;;;;;27.23;96.07;99566.06;4982820;28;20138;-75
2022/07/25 01:47:16;;;;;;;10.10;7.68;;;;;;;27.23;96.22;99571.47;4986313;28;20046;-75
2022/07/25 01:49:43;;;;;;;7.65;7.13;;;;;;;27.23;96.41;99559.81;4983303;28;20043;-74
2022/07/25 01:52:09;;;;;;;8.85;7.97;;;;;;;27.21;96.38;99562.81;4985478;28;20035;-73
2022/07/25 01:54:35;;;;;;;8.65;7.75;;;;;;;27.16;96.65;99565.41;4982681;28;20426;-73
2022/07/25 01:57:00;;;;;;;8.38;7.57;;;;;;;27.13;96.58;99555.09;4983900;28;20031;-73
2022/07/25 01:59:27;;;;;;;9.23;7.72;;;;;;;27.09;97.11;99559.38;4985076;28;20027;-73
2022/07/25 02:01:53;;;;;;;9.10;8.20;;;;;;;27.04;97.25;99550.38;4983278;28;20551;-73
2022/07/25 02:04:18;;;;;;;8.45;7.40;;;;;;;27.05;97.49;99558.22;4986354;28;20126;-74
2022/07/25 02:06:44;;;;;;;11.10;7.95;;;;;;;27.04;97.68;99550.38;4982598;28;20035;-73
2022/07/25 02:09:09;;;;;;;9.32;7.65;;;;;;;27.04;97.41;99545.75;4983143;28;20034;-75
2022/07/25 02:11:35;;;;;;;8.00;7.40;;;;;;;27.04;97.78;99550.38;4983102;28;20026;-76
2022/07/25 02:14:02;;;;;;;8.18;7.43;;;;;;;26.99;97.75;99548.38;4983981;28;20078;-74
2022/07/25 02:16:28;;;;;;;9.25;8.25;;;;;;;26.91;98.71;99546.13;4985062;28;20053;-73
2022/07/25 02:18:54;;;;;;;9.18;7.90;;;;;;;26.81;99.15;99537.81;4982970;28;20030;-73
2022/07/25 02:21:20;;;;;;;8.93;7.97;;;;;;;26.84;98.94;99540.03;4986460;28;20046;-73
2022/07/25 02:23:46;;;;;;;12.27;8.15;;;;;;;26.85;99.36;99541.66;4978252;28;20491;-77
2022/07/25 02:26:13;;;;;;;12.45;8.18;;;;;;;26.84;99.20;99545.44;4984925;28;20026;-76
2022/07/25 02:28:39;;;;;;;10.00;8.00;;;;;;;26.79;99.25;99545.38;4982704;28;20047;-75
2022/07/25 02:31:04;;;;;;;8.95;8.15;;;;;;;26.79;99.01;99550.78;4984446;28;20049;-76
2022/07/25 02:33:30;;;;;;;10.50;7.55;;;;;;;26.78;99.56;99551.84;4983976;28;20026;-74
2022/07/25 02:35:56;;;;;;;10.05;7.90;;;;;;;26.77;99.45;99547.50;4983206;28;20043;-73
2022/07/25 02:38:22;;;;;;;8.90;8.25;;;;;;;26.74;99.82;99545.31;4988715;28;20113;-74
2022/07/25 02:40:49;;;;;;;9.63;8.82;;;;;;;26.61;100.00;99551.06;4981822;28;20038;-74
2022/07/25 02:43:15;;;;;;;9.43;8.55;;;;;;;26.30;100.00;99547.03;4985118;28;20033;-74
2022/07/25 02:45:40;;;;;;;9.77;8.77;;;;;;;26.08;100.00;99546.88;4982101;28;20046;-75
2022/07/25 02:48:06;;;;;;;12.32;9.45;;;;;;;25.93;100.00;99549.31;4984276;28;20097;-74
2022/07/25 02:50:32;;;;;;;10.55;9.55;;;;;;;25.75;100.00;99553.03;4983784;28;20033;-74
2022/07/25 02:52:57;;;;;;;9.77;8.77;;;;;;;25.89;100.00;99558.97;4983084;28;20135;-73
2022/07/25 02:55:23;;;;;;;10.48;9.57;;;;;;;26.01;100.00;99559.75;4985128;28;20422;-74
2022/07/25 02:57:49;;;;;;;10.10;9.23;;;;;;;25.91;100.00;99556.84;4981505;28;20042;-74
2022/07/25 03:00:15;;;;;;;13.00;10.27;;;;;;;25.71;100.00;99559.97;4985062;28;20126;-74
2022/07/25 03:02:43;;;;;;;12.07;10.82;;;;;;;25.52;100.00;99553.91;4982121;28;20118;-74
2022/07/25 03:05:10;;;;;;;9.90;8.95;;;;;;;25.64;100.00;99557.41;4984403;28;20094;-74
2022/07/25 03:07:37;;;;;;;10.85;9.80;;;;;;;25.74;100.00;99553.28;4984235;28;20034;-74
2022/07/25 03:10:04;;;;;;;10.73;9.30;;;;;;;25.76;100.00;99561.97;4985028;28;20038;-74
2022/07/25 03:12:31;;;;;;;10.02;9.32;;;;;;;25.80;100.00;99555.81;4983415;28;20440;-74
2022/07/25 03:14:58;;;;;;;11.82;10.05;;;;;;;25.80;100.00;99560.44;4982814;28;20042;-74
2022/07/25 03:17:24;;;;;;;10.82;9.63;;;;;;;25.83;100.00;99559.94;4984700;28;20386;-73
2022/07/25 03:19:49;;;;;;;11.52;10.32;;;;;;;25.79;100.00;99556.09;4981331;28;20049;-74
2022/07/25 03:22:15;;;;;;;10.98;9.88;;;;;;;25.82;100.00;99552.88;4978110;28;20042;-74
2022/07/25 03:24:41;;;;;;;11.13;9.98;;;;;;;25.85;100.00;99564.06;4983908;28;20033;-74
2022/07/25 03:27:06;;;;;;;10.70;9.75;;;;;;;25.85;100.00;99563.22;4982888;28;20121;-74
2022/07/25 03:29:32;;;;;;;11.35;10.25;;;;;;;25.83;100.00;99559.94;4982543;28;20058;-74
2022/07/25 03:31:59;;;;;;;10.55;9.55;;;;;;;25.80;100.00;99560.44;4983528;28;20038;-75
2022/07/25 03:34:25;;;;;;;12.10;10.02;;;;;;;25.83;100.00;99557.22;4983699;28;20038;-74
2022/07/25 03:36:50;;;;;;;10.50;9.43;;;;;;;25.88;100.00;99554.63;4981106;28;20030;-74
2022/07/25 03:39:17;;;;;;;13.23;9.18;;;;;;;25.93;100.00;99546.59;4988312;28;20399;-74
2022/07/25 03:41:42;;;;;;;10.23;9.07;;;;;;;25.94;100.00;99540.97;4981535;28;20455;-74
2022/07/25 03:44:08;;;;;;;10.30;9.30;;;;;;;25.94;100.00;99548.25;4983574;28;20078;-73
2022/07/25 03:46:33;;;;;;;10.13;9.32;;;;;;;25.96;100.00;99551.53;4982635;28;20042;-74
2022/07/25 03:48:59;;;;;;;9.75;8.85;;;;;;;25.94;100.00;99549.06;4982664;28;20040;-74
2022/07/25 03:51:25;;;;;;;10.00;9.05;;;;;;;25.96;100.00;99555.06;4981253;28;20118;-75
2022/07/25 03:54:02;;;;;;;11.02;9.27;;;;;;;25.96;100.00;99544.25;4983533;28;20376;-74
2022/07/25 03:56:35;;;;;;;11.70;8.57;;;;;;;25.96;100.00;99548.84;4982315;28;20058;-74
2022/07/25 03:59:01;;;;;;;9.32;8.40;;;;;;;25.93;100.00;99566.34;4982196;28;20089;-74
2022/07/25 04:01:26;;;;;;;11.40;8.90;;;;;;;25.93;100.00;99560.13;4980857;28;20416;-74
2022/07/25 04:03:52;;;;;;;11.10;8.95;;;;;;;25.92;100.00;99558.50;4983016;28;20407;-76
2022/07/25 04:06:18;;;;;;;12.05;9.23;;;;;;;25.93;100.00;99563.66;4980319;28;20031;-74
2022/07/25 04:08:43;;;;;;;9.35;8.48;;;;;;;25.94;100.00;99567.16;4982888;28;20035;-74
2022/07/25 04:11:09;;;;;;;12.10;9.07;;;;;;;25.92;100.00;99572.03;4981083;28;20043;-74
2022/07/25 04:13:35;;;;;;;10.60;9.40;;;;;;;25.88;100.00;99573.53;4981917;28;20391;-73
2022/07/25 04:16:02;;;;;;;11.63;8.40;;;;;;;25.85;100.00;99580.28;4981136;28;20038;-72
2022/07/25 04:18:27;;;;;;;10.77;9.63;;;;;;;25.75;100.00;99573.81;4980970;28;20460;-73
2022/07/25 04:20:53;;;;;;;9.73;8.85;;;;;;;25.65;100.00;99577.16;4983004;28;20166;-73
2022/07/25 04:23:18;;;;;;;10.82;9.25;;;;;;;25.61;100.00;99574.13;4980097;28;20039;-75
2022/07/25 04:25:44;;;;;;;13.85;9.55;;;;;;;25.58;100.00;99582.69;4985076;28;20113;-74
2022/07/25 04:28:09;;;;;;;10.90;9.80;;;;;;;25.58;100.00;99585.41;4981344;28;20062;-74
2022/07/25 04:30:35;;;;;;;10.63;9.48;;;;;;;25.50;100.00;99577.66;4981925;28;20146;-74
2022/07/25 04:33:01;;;;;;;10.45;9.18;;;;;;;25.53;100.00;99582.56;4982009;28;20422;-73
2022/07/25 04:35:26;;;;;;;9.80;8.80;;;;;;;25.55;100.00;99574.22;4981161;28;20114;-73
2022/07/25 04:37:52;;;;;;;10.77;9.68;;;;;;;25.59;100.00;99570.84;4982990;28;20070;-74
2022/07/25 04:40:17;;;;;;;10.40;9.05;;;;;;;25.66;100.00;99571.53;4980597;28;20034;-74
2022/07/25 04:42:43;;;;;;;12.55;9.65;;;;;;;25.72;100.00;99575.16;4982904;28;20034;-74
2022/07/25 04:45:09;;;;;;;11.18;9.15;;;;;;;25.79;100.00;99580.41;4980791;28;20126;-73
2022/07/25 04:47:35;;;;;;;9.77;8.77;;;;;;;25.80;100.00;99587.47;4981546;28;20026;-73
2022/07/25 04:50:00;;;;;;;10.20;8.93;;;;;;;25.80;100.00;99582.84;4983057;28;20041;-73
2022/07/25 04:52:26;;;;;;;10.27;9.27;;;;;;;25.81;100.00;99578.28;4984900;28;20113;-74
2022/07/25 04:54:52;;;;;;;10.15;9.30;;;;;;;25.80;100.00;99584.75;4988593;28;20050;-74
2022/07/25 04:57:17;;;;;;;11.73;9.40;;;;;;;25.85;100.00;99591.09;4984068;28;20025;-73
2022/07/25 04:59:43;;;;;;;10.20;9.18;;;;;;;25.87;100.00;99594.34;4986757;28;20050;-73
2022/07/25 05:02:09;;;;;;;11.90;9.25;;;;;;;25.90;100.00;99587.66;4981112;28;20070;-73
2022/07/25 05:04:35;;;;;;;13.75;10.32;;;;;;;25.65;100.00;99575.28;4982943;28;20486;-74
2022/07/25 05:07:01;;;;;;;10.77;9.68;;;;;;;25.64;100.00;99578.22;4986643;28;20088;-73
2022/07/25 05:09:27;;;;;;;14.23;10.05;;;;;;;25.48;100.00;99579.75;4985887;28;20053;-73
2022/07/25 05:11:53;;;;;;;11.80;10.57;;;;;;;25.58;100.00;99574.59;4981376;28;20038;-75
2022/07/25 05:14:18;;;;;;;11.32;10.20;;;;;;;25.66;100.00;99576.94;4987318;28;20062;-78
2022/07/25 05:16:44;;;;;;;10.63;9.73;;;;;;;25.76;100.00;99570.88;4984145;28;20030;-80
2022/07/25 05:19:10;;;;;;;11.50;9.85;;;;;;;25.86;100.00;99559.47;4981124;28;20106;-78
2022/07/25 05:21:37;;;;;;;15.07;11.10;;;;;;;25.93;100.00;99560.13;4981423;28;20031;-79
2022/07/25 05:24:03;;;;;;;13.20;10.07;;;;;;;25.99;100.00;99564.56;4985070;28;20506;-79
2022/07/25 05:26:29;;;;;;;10.73;9.65;;;;;;;26.08;100.00;99560.41;4983895;28;20587;-78
2022/07/25 05:28:55;;;;;;;11.00;9.90;;;;;;;26.15;100.00;99571.91;4985858;28;20043;-79
2022/07/25 05:31:21;;;;;;;10.90;9.80;;;;;;;26.21;100.00;99564.69;4986193;28;20035;-79
2022/07/25 05:33:46;;;;;;;11.40;10.20;;;;;;;26.28;100.00;99563.50;4988328;28;20035;-74
2022/07/25 05:36:12;;;;;;;10.38;9.38;;;;;;;26.35;100.00;99561.44;4982155;28;20027;-73
2022/07/25 05:38:37;;;;;;;11.40;8.93;;;;;;;26.40;100.00;99564.22;4984523;28;20026;-73
2022/07/25 05:41:03;;;;;;;11.65;9.38;;;;;;;26.46;100.00;99560.56;4983287;28;20046;-73
2022/07/25 05:43:29;;;;;;;12.23;9.23;;;;;;;26.51;100.00;99562.50;4984281;28;20031;-74
2022/07/25 05:46:04;;;;;;;10.30;9.20;;;;;;;26.57;100.00;99566.16;4984793;28;20085;-73
2022/07/25 05:48:30;;;;;;;10.73;9.50;;;;;;;26.58;100.00;99562.34;4983055;28;20114;-75
2022/07/25 05:50:58;;;;;;;16.92;9.75;;;;;;;26.62;100.00;99574.34;4981700;28;20480;-72
2022/07/25 05:53:24;;;;;;;10.70;9.63;;;;;;;26.65;100.00;99563.00;4986753;28;20442;-73
2022/07/25 05:55:50;;;;;;;10.90;9.85;;;;;;;26.71;100.00;99572.84;4965362;28;20045;-73
2022/07/25 05:58:16;;;;;;;13.25;9.48;;;;;;;26.76;100.00;99567.50;4967591;28;20035;-75
2022/07/25 06:00:42;;;;;;;15.15;10.63;;;;;;;26.79;100.00;99575.16;4970467;28;20034;-73
2022/07/25 06:03:07;;;;;;;16.90;10.90;;;;;;;26.79;100.00;99575.16;4974253;28;20030;-75
2022/07/25 06:05:33;;;;;;;12.23;10.15;;;;;;;26.80;100.00;99576.78;4968467;28;20030;-76
2022/07/25 06:07:58;;;;;;;13.80;10.70;;;;;;;26.80;100.00;99572.19;4965989;28;20031;-77
2022/07/25 06:10:24;;;;;;;13.43;10.55;;;;;;;26.82;100.00;99580.06;4971242;28;20031;-75
2022/07/25 06:12:50;;;;;;;13.35;11.27;;;;;;;26.80;100.00;99577.59;4968345;28;20030;-77
2022/07/25 06:15:16;;;;;;;12.18;10.88;;;;;;;26.71;100.00;99572.84;4966420;28;20083;-75
2022/07/25 06:17:41;;;;;;;11.60;10.50;;;;;;;26.63;100.00;99570.53;4972155;28;20034;-77
2022/07/25 06:20:08;;;;;;;10.48;9.40;;;;;;;26.73;100.00;99570.72;4970655;28;20039;-78
2022/07/25 06:22:33;;;;;;;15.88;10.38;;;;;;;26.85;100.00;99579.56;4970209;28;20105;-77
2022/07/25 06:25:01;;;;;;;15.13;10.65;;;;;;;27.00;100.00;99581.69;4966214;28;20031;-76
2022/07/25 06:27:27;;;;;;;11.63;10.48;;;;;;;27.07;100.00;99574.22;4976120;28;20026;-75
2022/07/25 06:29:53;;;;;;;11.35;10.18;;;;;;;27.15;100.00;99580.06;4968183;28;20066;-76
2022/07/25 06:32:18;;;;;;;10.50;9.35;;;;;;;27.24;100.00;99580.44;4978953;28;20065;-77
2022/07/25 06:34:44;;;;;;;12.57;9.82;;;;;;;27.25;100.00;99580.19;4971410;28;20065;-79
2022/07/25 06:37:10;;;;;;;15.30;10.35;;;;;;;27.21;100.00;99579.06;4976493;28;20119;-78
2022/07/25 06:39:35;;;;;;;11.23;9.50;;;;;;;27.21;100.00;99576.34;4963617;28;20063;-77
2022/07/25 06:42:02;;;;;;;15.20;9.77;;;;;;;27.29;100.00;99570.47;4975192;28;20049;-77
2022/07/25 06:44:34;;;;;;;12.13;9.55;;;;;;;27.38;100.00;99578.19;4973374;28;20043;-76
2022/07/25 06:47:04;;;;;;;16.95;9.85;;;;;;;27.47;99.67;99588.31;4978862;28;20463;-74
2022/07/25 06:49:30;;;;;;;;;;;;;;;27.58;99.17;99583.88;4985054;28;20158;-74
2022/07/25 06:51:55;;;;;;;14.23;9.75;;;;;;;27.71;98.52;99583.50;4981832;28;19922;-76
2022/07/25 06:54:21;;;;;;;13.70;9.80;;;;;;;27.83;98.17;99581.47;4985480;28;20030;-72
2022/07/25 06:56:47;;;;;;;12.80;10.25;;;;;;;27.93;97.57;99584.28;4980482;28;20031;-73
2022/07/25 06:59:12;;;;;;;12.25;9.50;;;;;;;28.09;96.57;99591.50;4980381;28;20088;-75
2022/07/25 07:01:38;;;;;;;11.52;9.35;;;;;;;28.21;95.88;99582.44;4974723;28;20022;-74
2022/07/25 07:04:03;;;;;;;11.23;9.68;;;;;;;28.30;94.61;99586.31;4985245;28;20034;-73
2022/07/25 07:06:30;;;;;;;14.00;10.57;;;;;;;28.14;95.41;99587.25;4977020;28;20034;-76
2022/07/25 07:08:55;;;;;;;15.40;9.35;;;;;;;28.32;94.47;99586.88;4977263;28;20398;-74
2022/07/25 07:11:21;;;;;;;11.07;9.20;;;;;;;28.44;93.98;99590.25;4982969;28;20026;-74
2022/07/25 07:13:47;;;;;;;12.20;10.02;;;;;;;28.40;94.41;99580.97;4984299;28;20035;-73
2022/07/25 07:16:12;;;;;;;12.98;10.23;;;;;;;28.28;95.59;99586.53;4980111;28;20062;-74
2022/07/25 07:18:41;;;;;;;10.30;9.25;;;;;;;28.22;95.64;99589.47;4982506;28;20058;-74
2022/07/25 07:21:07;;;;;;;10.30;9.00;;;;;;;28.30;95.33;99592.56;4983123;28;20424;-73
2022/07/25 07:23:32;;;;;;;11.63;9.57;;;;;;;28.33;95.00;99588.50;4980904;28;20027;-75
2022/07/25 07:25:59;;;;;;;11.30;10.35;;;;;;;28.38;94.99;99583.94;4983386;28;20187;-77
2022/07/25 07:28:25;;;;;;;11.35;9.65;;;;;;;28.46;94.83;99583.47;4980635;28;20126;-72
2022/07/25 07:30:50;;;;;;;11.85;9.75;;;;;;;28.52;94.29;99578.88;4982073;28;20069;-73
2022/07/25 07:33:16;;;;;;;10.88;9.90;;;;;;;28.59;93.72;99579.50;4980705;28;20038;-72
2022/07/25 07:35:44;;;;;;;15.15;10.55;;;;;;;28.64;93.51;99587.69;4980295;28;20038;-73
2022/07/25 07:38:10;;;;;;;10.18;9.27;;;;;;;28.69;93.63;99582.28;4980680;28;20042;-73
2022/07/25 07:40:36;;;;;;;13.15;10.32;;;;;;;28.71;93.40;99582.84;4980276;28;20026;-73
2022/07/25 07:43:02;;;;;;;11.35;9.65;;;;;;;28.76;92.76;99579.38;4982579;28;20046;-73
2022/07/25 07:45:29;;;;;;;15.88;9.82;;;;;;;28.77;92.93;99579.13;4978645;28;20446;-72
2022/07/25 07:47:55;;;;;;;10.85;9.77;;;;;;;28.77;92.56;99581.84;4982419;28;20043;-73
2022/07/25 07:50:23;;;;;;;12.07;10.32;;;;;;;28.75;91.85;99580.44;4981864;28;20068;-74
2022/07/25 07:52:50;;;;;;;11.55;9.82;;;;;;;28.73;91.91;99575.31;4980977;28;20038;-73
2022/07/25 07:58:00;;;;;;;11.45;9.90;;;;;;;28.81;91.59;99588.38;4979640;28;20042;-73
2022/07/25 08:00:29;;;;;;;12.30;10.00;;;;;;;28.95;91.39;99582.50;4983410;28;20391;-73
2022/07/25 08:02:54;;;;;;;12.23;9.95;;;;;;;29.03;91.09;99577.41;4977150;28;20027;-75
2022/07/25 08:05:43;;;;;;;14.13;10.18;;;;;;;29.14;90.49;99570.94;4977906;28;20081;-73
2022/07/25 08:08:12;;;;;;;11.60;10.60;;;;;;;29.20;89.26;99569.06;4972593;28;20051;-74
2022/07/25 08:10:45;;;;;;;11.23;10.25;;;;;;;29.14;88.93;99570.13;4978344;28;20034;-72
2022/07/25 08:13:21;;;;;;;14.63;10.50;;;;;;;29.28;88.81;99565.81;4979584;28;20419;-73
2022/07/25 08:15:50;;;;;;;10.90;9.80;;;;;;;29.42;88.29;99561.59;4979084;28;20398;-72
2022/07/25 08:18:16;;;;;;;12.20;9.65;;;;;;;29.48;87.69;99565.97;4981280;28;20031;-72
2022/07/25 08:20:41;;;;;;;10.80;9.70;;;;;;;29.56;87.50;99561.94;4980943;28;20053;-72
2022/07/25 08:23:09;;;;;;;11.73;10.45;;;;;;;29.63;87.14;99563.28;4980868;28;20039;-73
2022/07/25 08:25:35;;;;;;;10.93;9.90;;;;;;;29.72;86.78;99560.88;4979681;28;20411;-74
2022/07/25 08:28:02;;;;;;;11.13;9.38;;;;;;;29.77;86.17;99557.34;4982260;28;20078;-74
2022/07/25 08:30:28;;;;;;;14.85;10.27;;;;;;;29.81;85.58;99561.19;4982496;28;20057;-73
2022/07/25 08:32:58;;;;;;;16.88;9.90;;;;;;;29.88;85.43;99559.81;4979102;28;20086;-72
2022/07/25 08:35:26;;;;;;;14.60;9.90;;;;;;;29.91;84.97;99553.06;4981745;28;20030;-72
2022/07/25 08:37:53;;;;;;;13.60;9.95;;;;;;;29.94;85.28;99563.41;4983649;28;20100;-73
2022/07/25 08:40:21;;;;;;;14.13;10.57;;;;;;;29.97;84.72;99558.25;4982078;28;20033;-72
2022/07/25 08:42:47;;;;;;;11.55;10.35;;;;;;;30.00;84.46;99551.44;4979573;28;20034;-72
2022/07/25 08:45:18;;;;;;;13.98;9.93;;;;;;;30.05;84.19;99556.91;4982515;28;20047;-73
2022/07/25 08:47:48;;;;;;;12.35;9.45;;;;;;;30.11;82.88;99547.66;4983617;28;20403;-75
2022/07/25 08:50:17;;;;;;;14.55;9.18;;;;;;;30.20;82.30;99546.03;4979771;28;20035;-74
2022/07/25 08:52:44;;;;;;;12.30;8.52;;;;;;;30.29;80.94;99544.41;4981530;28;20039;-74
2022/07/25 08:55:15;;;;;;;11.77;8.40;;;;;;;30.38;79.64;99553.69;4981742;28;20357;-74
2022/07/25 08:57:44;;;;;;;11.05;9.20;;;;;;;30.44;77.94;99551.78;4983308;28;20038;-72
2022/07/25 09:00:14;;;;;;;10.38;8.98;;;;;;;30.46;76.80;99549.56;4980589;28;20090;-73
2022/07/25 09:02:40;;;;;;;12.37;9.03;;;;;;;30.50;76.29;99546.09;4981637;28;20077;-72
2022/07/25 09:05:06;;;;;;;10.55;8.82;;;;;;;30.49;75.57;99543.63;4979293;28;20057;-74
2022/07/25 09:07:37;;;;;;;12.98;9.18;;;;;;;30.55;75.84;99547.16;4981304;28;20034;-74
2022/07/25 09:10:18;;;;;;;10.02;9.02;;;;;;;30.50;75.22;99535.19;4982813;28;20468;-74
2022/07/25 09:13:00;;;;;;;11.27;8.98;;;;;;;30.61;75.51;99535.16;4983375;28;20053;-74
2022/07/25 09:15:37;;;;;;;12.00;9.75;;;;;;;30.71;74.90;99543.31;4981159;28;20395;-75
2022/07/25 09:18:13;;;;;;;13.90;8.75;;;;;;;30.77;72.77;99540.31;4979225;28;20457;-74
2022/07/25 09:20:49;;;;;;;10.43;9.02;;;;;;;30.84;71.95;99542.75;4981402;28;20368;-74
2022/07/25 09:23:29;;;;;;;11.82;8.77;;;;;;;30.95;71.82;99536.19;4983053;28;20033;-72
2022/07/25 09:26:05;;;;;;;9.27;8.25;;;;;;;31.08;70.70;99535.66;4976363;28;20165;-73
2022/07/25 09:28:38;;;;;;;11.82;8.43;;;;;;;31.15;69.90;99538.91;4980001;28;20039;-72
2022/07/25 09:31:03;;;;;;;7.78;6.80;;;;;;;31.20;67.45;99527.16;4976519;28;20050;-71
2022/07/25 09:33:30;;;;;;;12.38;8.68;;;;;;;31.22;67.73;99528.50;4980852;28;20038;-72
2022/07/25 09:35:56;;;;;;;7.85;7.18;;;;;;;31.24;67.86;99529.03;4981972;28;20382;-75
2022/07/25 09:38:23;;;;;;;8.80;7.93;;;;;;;31.21;68.37;99528.78;4984294;28;20037;-73
2022/07/25 09:41:01;;;;;;;8.82;8.10;;;;;;;31.30;68.67;99527.94;4984651;28;20387;-72
2022/07/25 09:43:38;;;;;;;10.40;8.16;;;;;;;31.38;68.50;99523.81;4627519;28;10002780;-74
2022/07/25 09:46:05;;;;;;;8.65;7.38;;;;;;;31.50;67.54;99520.75;4981124;28;20046;-73
2022/07/25 09:48:31;;;;;;;10.32;8.85;;;;;;;31.68;66.61;99520.16;4973722;28;20405;-75
2022/07/25 09:50:57;;;;;;;11.75;8.60;;;;;;;31.79;66.65;99519.00;4978008;28;20039;-71
2022/07/25 09:53:23;;;;;;;12.95;8.65;;;;;;;31.95;66.87;99512.31;4974583;28;20035;-71
2022/07/25 09:55:49;;;;;;;8.95;8.00;;;;;;;31.95;67.11;99512.31;4963195;28;20039;-72
2022/07/25 09:58:14;;;;;;;10.70;8.48;;;;;;;31.97;66.62;99515.59;4969786;28;20404;-71
2022/07/25 10:00:41;;;;;;;12.05;8.43;;;;;;;32.09;64.75;99516.06;4980514;28;20125;-72
2022/07/25 10:03:28;;;;;;;9.05;8.15;;;;;;;32.36;62.81;99512.03;4969735;28;20122;-71
2022/07/25 10:06:12;;;;;;;13.40;8.65;;;;;;;32.37;64.13;99516.41;4980438;28;20047;-72
2022/07/25 10:08:39;;;;;;;14.93;8.45;;;;;;;32.32;64.34;99505.53;4963078;28;20065;-72
2022/07/25 10:11:16;;;;;;;10.18;7.90;;;;;;;32.42;63.22;99500.78;4969993;28;20191;-72
2022/07/25 10:13:42;;;;;;;8.07;7.22;;;;;;;32.55;62.94;99510.22;4982448;28;20034;-71
2022/07/25 10:16:16;;;;;;;9.05;8.07;;;;;;;32.55;61.85;99504.75;4978603;28;20073;-72
2022/07/25 10:18:48;;;;;;;14.70;8.70;;;;;;;32.53;62.55;99490.56;4974395;28;20138;-72
2022/07/25 10:21:15;;;;;;;10.77;7.47;;;;;;;32.56;63.03;99494.66;4984182;28;20378;-72
2022/07/25 10:23:41;;;;;;;8.77;7.97;;;;;;;32.62;61.98;99505.25;4977639;28;20451;-72
2022/07/25 10:26:09;;;;;;;8.32;7.55;;;;;;;32.81;61.26;99500.69;4984929;28;20034;-73
2022/07/25 10:28:50;;;;;;;8.52;7.45;;;;;;;32.92;61.02;99488.56;4970055;28;20905;-72
2022/07/25 10:31:23;;;;;;;11.13;7.50;;;;;;;33.07;59.63;99484.00;4968312;28;20734;-72
2022/07/25 10:34:01;;;;;;;9.77;7.50;;;;;;;33.14;59.32;99487.19;4967683;28;20027;-71
2022/07/25 10:36:41;;;;;;;9.48;7.63;;;;;;;33.19;59.33;99484.41;4976490;28;20398;-71
2022/07/25 10:39:09;;;;;;;8.48;7.70;;;;;;;33.35;58.57;99479.56;4977868;28;20372;-72
2022/07/25 10:41:39;;;;;;;8.45;7.57;;;;;;;33.34;59.34;99483.44;4978369;28;20026;-71
2022/07/25 10:44:11;;;;;;;11.68;7.60;;;;;;;33.48;58.68;99471.44;4630749;28;10000418;-74
2022/07/25 10:46:37;;;;;;;8.15;7.20;;;;;;;33.47;58.65;99477.22;4982575;28;20111;-71
2022/07/25 10:49:04;;;;;;;8.32;7.10;;;;;;;33.59;57.72;99464.72;4978544;28;20111;-72
2022/07/25 10:51:35;;;;;;;9.00;8.00;;;;;;;33.67;55.79;99466.81;4981019;28;20039;-73
2022/07/25 10:54:15;;;;;;;9.73;7.55;;;;;;;33.62;57.61;99464.16;4981612;28;20054;-72
2022/07/25 10:56:52;;;;;;;10.70;7.75;;;;;;;33.60;58.05;99460.06;4983891;28;20089;-72
2022/07/25 10:59:29;;;;;;;9.38;7.32;;;;;;;33.56;58.66;99454.38;4973667;28;20031;-73
2022/07/25 11:01:55;;;;;;;10.27;7.45;;;;;;;33.74;56.58;99449.22;4978790;28;20042;-71
2022/07/25 11:04:21;;;;;;;8.38;7.40;;;;;;;33.79;56.63;99446.41;4981373;28;20045;-72
2022/07/25 11:06:47;;;;;;;7.78;6.75;;;;;;;33.68;56.62;99441.06;4963123;28;20034;-71
2022/07/25 11:09:22;;;;;;;8.48;7.47;;;;;;;33.78;55.71;99440.13;4978048;28;20074;-72
2022/07/25 11:11:50;;;;;;;7.95;6.88;;;;;;;33.77;54.96;99437.66;4968105;28;20398;-71
2022/07/25 11:14:43;;;;;;;9.27;6.72;;;;;;;33.84;54.37;99438.09;4983946;28;20053;-72
2022/07/25 11:17:11;;;;;;;8.13;7.35;;;;;;;33.79;54.28;99432.72;4980982;28;20056;-73
2022/07/25 11:19:37;;;;;;;9.70;6.63;;;;;;;33.67;54.97;99428.50;4978601;28;20069;-72
2022/07/25 11:22:06;;;;;;;8.82;7.03;;;;;;;33.84;54.87;99421.69;4975750;28;20046;-72
2022/07/25 11:24:42;;;;;;;7.15;6.45;;;;;;;34.04;54.45;99415.88;4968974;28;20039;-72
2022/07/25 11:27:09;;;;;;;7.85;7.00;;;;;;;34.10;53.29;99420.16;4628515;28;10000744;-72